San Antonio, TX (78247)

6:52 AM CDT on September 05, 2015 (GMT -0500)
Longs Creek - North | | Change Station
CLOSE
Current Station
Personal Weather Station
Location: San Antonio, TX
Elevation: 906 ft
Nearby Weather Stations

Elev 906 ft 29.60 °N, 98.41 °W | Updated 12 seconds ago

Mostly Cloudy
Mostly Cloudy
77.9 °F
Feels Like 80 °F
N
3.7
Wind Variable Wind from South
Gusts 6.3 mph

Today
High -- | Low -- °F
--% Chance of Precip.
Yesterday
High -- | Low -- °F
Precip. -- in
7:12 AM 7:51 PM
Waning Gibbous, 49% visible
Pressure 29.92 in
Visibility 10.0 miles
Clouds Scattered Clouds 1700 ft
Mostly Cloudy 2400 ft
Heat Index 80 °F
Dew Point 75 °F
Humidity 92%
Rainfall 0.00 in
Snow Depth Not available.
UV 0 out of 12
Pollen 9.80 out of 12
Air Quality Not available.
Flu Activity Not available.
METAR KSAT 051051Z 18006KT 10SM SCT017 BKN024 27/23 A2998 RMK AO2 SLP132 T02720233
Pressure 29.92 in
Visibility 10.0 miles
Clouds Scattered Clouds 1700 ft
Mostly Cloudy 2400 ft
Heat Index 80 °F
Dew Point 75 °F
Humidity 92%
Rainfall 0.00 in
Snow Depth Not available.
UV 0 out of 12
Pollen 9.80 out of 12
Air Quality Not available.
Flu Activity Not available.
METAR KSAT 051051Z 18006KT 10SM SCT017 BKN024 27/23 A2998 RMK AO2 SLP132 T02720233

10-Day Weather Forecast

×

Almanac

Astronomy

Sep. 05, 2015 Rise Set
Actual Time
Civil Twilight
Nautical Twilight
Astronomical Twilight
Moon
Length of Visible Light
Length of Day
Tomorrow will be .
, % of the Moon is Illuminated

Today's Extremes

State Highs State Lows

Community

WunderPhotos

Upload Photos

1,852,449 photos uploaded!

WunderBlogs® & News

Nearby

Air Quality

  Air Quality AQ Index Pollutant
Not available.

Snow Depth

Station Depth Elevation

Earthquake Activity

City Distance Mag. Time & Date
Minimum magnitude displayed is 2.5.

Coastal Water Temperatures

Place Temperature

Stations

Nearby Weather Stations

Station Location Temp. Windchill Dew Point Humidity Wind Precip. Elev Updated Type